sensor_id;sensor_type;location;lat;lon;timestamp;temperature;humidity
67769;DHT22;54569;52.018;5.584;2023-03-14T00:02:07;12.70;71.60
67769;DHT22;54569;52.018;5.584;2023-03-14T00:04:33;12.80;71.30
67769;DHT22;54569;52.018;5.584;2023-03-14T00:06:58;12.70;70.50
67769;DHT22;54569;52.018;5.584;2023-03-14T00:09:24;12.70;70.00
67769;DHT22;54569;52.018;5.584;2023-03-14T00:11:52;12.70;69.30
67769;DHT22;54569;52.018;5.584;2023-03-14T00:14:18;12.70;69.10
67769;DHT22;54569;52.018;5.584;2023-03-14T00:16:47;12.70;68.90
67769;DHT22;54569;52.018;5.584;2023-03-14T00:19:13;12.70;68.70
67769;DHT22;54569;52.018;5.584;2023-03-14T00:21:38;12.60;68.40
67769;DHT22;54569;52.018;5.584;2023-03-14T00:24:04;12.60;68.40
67769;DHT22;54569;52.018;5.584;2023-03-14T00:26:31;12.60;68.40
67769;DHT22;54569;52.018;5.584;2023-03-14T00:28:57;12.50;68.30
67769;DHT22;54569;52.018;5.584;2023-03-14T00:31:22;12.50;68.40
67769;DHT22;54569;52.018;5.584;2023-03-14T00:33:48;12.50;68.50
67769;DHT22;54569;52.018;5.584;2023-03-14T00:36:17;12.40;68.50
67769;DHT22;54569;52.018;5.584;2023-03-14T00:38:45;12.40;68.50
67769;DHT22;54569;52.018;5.584;2023-03-14T00:41:15;12.40;68.60
67769;DHT22;54569;52.018;5.584;2023-03-14T00:43:41;12.30;68.70
67769;DHT22;54569;52.018;5.584;2023-03-14T00:46:07;12.30;68.80
67769;DHT22;54569;52.018;5.584;2023-03-14T00:48:33;12.30;68.90
67769;DHT22;54569;52.018;5.584;2023-03-14T00:51:00;12.30;68.90
67769;DHT22;54569;52.018;5.584;2023-03-14T00:53:26;12.20;69.00
67769;DHT22;54569;52.018;5.584;2023-03-14T00:55:52;12.20;68.90
67769;DHT22;54569;52.018;5.584;2023-03-14T00:58:18;12.20;69.00
67769;DHT22;54569;52.018;5.584;2023-03-14T01:00:44;12.20;69.00
67769;DHT22;54569;52.018;5.584;2023-03-14T01:03:11;12.10;69.10
67769;DHT22;54569;52.018;5.584;2023-03-14T01:05:38;12.10;69.20
67769;DHT22;54569;52.018;5.584;2023-03-14T01:08:05;12.00;69.30
67769;DHT22;54569;52.018;5.584;2023-03-14T01:10:34;11.90;70.00
67769;DHT22;54569;52.018;5.584;2023-03-14T01:13:00;11.90;70.40
67769;DHT22;54569;52.018;5.584;2023-03-14T01:15:26;11.80;70.30
67769;DHT22;54569;52.018;5.584;2023-03-14T01:17:51;11.70;70.40
67769;DHT22;54569;52.018;5.584;2023-03-14T01:20:17;11.70;70.60
67769;DHT22;54569;52.018;5.584;2023-03-14T01:22:44;11.70;70.80
67769;DHT22;54569;52.018;5.584;2023-03-14T01:25:15;11.60;70.90
67769;DHT22;54569;52.018;5.584;2023-03-14T01:27:41;11.60;71.70
67769;DHT22;54569;52.018;5.584;2023-03-14T01:30:09;11.50;72.30
67769;DHT22;54569;52.018;5.584;2023-03-14T01:32:38;11.40;73.10
67769;DHT22;54569;52.018;5.584;2023-03-14T01:35:04;11.30;74.30
67769;DHT22;54569;52.018;5.584;2023-03-14T01:37:30;11.10;75.00
67769;DHT22;54569;52.018;5.584;2023-03-14T01:39:56;11.00;75.60
67769;DHT22;54569;52.018;5.584;2023-03-14T01:42:22;10.90;76.10
67769;DHT22;54569;52.018;5.584;2023-03-14T01:44:59;10.80;76.20
67769;DHT22;54569;52.018;5.584;2023-03-14T01:47:25;10.70;76.60
67769;DHT22;54569;52.018;5.584;2023-03-14T01:49:56;10.60;77.40
67769;DHT22;54569;52.018;5.584;2023-03-14T01:52:31;10.60;77.50
67769;DHT22;54569;52.018;5.584;2023-03-14T01:55:12;10.60;77.70
67769;DHT22;54569;52.018;5.584;2023-03-14T01:57:44;10.60;77.70
67769;DHT22;54569;52.018;5.584;2023-03-14T02:00:16;10.50;78.50
67769;DHT22;54569;52.018;5.584;2023-03-14T02:02:48;10.50;78.60
67769;DHT22;54569;52.018;5.584;2023-03-14T02:05:21;10.40;79.60
67769;DHT22;54569;52.018;5.584;2023-03-14T02:07:59;10.30;79.40
67769;DHT22;54569;52.018;5.584;2023-03-14T02:10:33;10.30;79.80
67769;DHT22;54569;52.018;5.584;2023-03-14T02:13:03;10.30;80.50
67769;DHT22;54569;52.018;5.584;2023-03-14T02:15:37;10.20;80.20
67769;DHT22;54569;52.018;5.584;2023-03-14T02:18:24;10.20;80.60
67769;DHT22;54569;52.018;5.584;2023-03-14T02:21:25;10.20;80.80
67769;DHT22;54569;52.018;5.584;2023-03-14T02:27:02;10.20;81.00
67769;DHT22;54569;52.018;5.584;2023-03-14T02:29:29;10.20;82.30
67769;DHT22;54569;52.018;5.584;2023-03-14T02:31:58;10.20;80.40
67769;DHT22;54569;52.018;5.584;2023-03-14T02:34:24;10.20;81.10
67769;DHT22;54569;52.018;5.584;2023-03-14T02:36:51;10.20;82.10
67769;DHT22;54569;52.018;5.584;2023-03-14T02:39:44;10.10;82.70
67769;DHT22;54569;52.018;5.584;2023-03-14T02:42:12;10.10;84.50
67769;DHT22;54569;52.018;5.584;2023-03-14T02:44:59;10.10;81.60
67769;DHT22;54569;52.018;5.584;2023-03-14T02:47:29;10.10;85.00
67769;DHT22;54569;52.018;5.584;2023-03-14T02:50:01;10.10;82.20
67769;DHT22;54569;52.018;5.584;2023-03-14T02:52:27;10.10;82.30
67769;DHT22;54569;52.018;5.584;2023-03-14T02:54:53;10.10;82.20
67769;DHT22;54569;52.018;5.584;2023-03-14T02:57:19;10.10;82.10
67769;DHT22;54569;52.018;5.584;2023-03-14T02:59:45;10.10;81.60
67769;DHT22;54569;52.018;5.584;2023-03-14T03:02:15;10.10;82.90
67769;DHT22;54569;52.018;5.584;2023-03-14T03:04:41;10.10;82.00
67769;DHT22;54569;52.018;5.584;2023-03-14T03:07:07;10.10;81.70
67769;DHT22;54569;52.018;5.584;2023-03-14T03:09:33;10.20;81.30
67769;DHT22;54569;52.018;5.584;2023-03-14T03:11:59;10.20;81.50
67769;DHT22;54569;52.018;5.584;2023-03-14T03:14:27;10.20;81.70
67769;DHT22;54569;52.018;5.584;2023-03-14T03:16:56;10.20;81.00
67769;DHT22;54569;52.018;5.584;2023-03-14T03:19:21;10.20;81.10
67769;DHT22;54569;52.018;5.584;2023-03-14T03:21:47;10.30;80.80
67769;DHT22;54569;52.018;5.584;2023-03-14T03:24:13;10.30;80.80
67769;DHT22;54569;52.018;5.584;2023-03-14T03:26:39;10.30;80.50
67769;DHT22;54569;52.018;5.584;2023-03-14T03:29:07;10.30;80.50
67769;DHT22;54569;52.018;5.584;2023-03-14T03:31:36;10.30;80.50
67769;DHT22;54569;52.018;5.584;2023-03-14T03:34:02;10.30;80.50
67769;DHT22;54569;52.018;5.584;2023-03-14T03:36:27;10.40;81.00
67769;DHT22;54569;52.018;5.584;2023-03-14T03:38:53;10.30;80.30
67769;DHT22;54569;52.018;5.584;2023-03-14T03:41:19;10.40;80.60
67769;DHT22;54569;52.018;5.584;2023-03-14T03:43:46;10.40;80.40
67769;DHT22;54569;52.018;5.584;2023-03-14T03:46:15;10.40;80.30
67769;DHT22;54569;52.018;5.584;2023-03-14T03:48:40;10.40;80.60
67769;DHT22;54569;52.018;5.584;2023-03-14T03:51:06;10.30;80.60
67769;DHT22;54569;52.018;5.584;2023-03-14T03:53:33;10.30;80.80
67769;DHT22;54569;52.018;5.584;2023-03-14T03:56:02;10.30;80.80
67769;DHT22;54569;52.018;5.584;2023-03-14T03:58:28;10.30;81.00
67769;DHT22;54569;52.018;5.584;2023-03-14T04:00:55;10.30;81.80
67769;DHT22;54569;52.018;5.584;2023-03-14T04:03:21;10.30;81.80
67769;DHT22;54569;52.018;5.584;2023-03-14T04:05:58;10.30;81.10
67769;DHT22;54569;52.018;5.584;2023-03-14T04:08:23;10.30;81.10
67769;DHT22;54569;52.018;5.584;2023-03-14T04:10:49;10.30;81.00
67769;DHT22;54569;52.018;5.584;2023-03-14T04:13:29;10.30;82.30
67769;DHT22;54569;52.018;5.584;2023-03-14T04:15:55;10.30;81.40
67769;DHT22;54569;52.018;5.584;2023-03-14T04:18:25;10.30;80.90
67769;DHT22;54569;52.018;5.584;2023-03-14T04:20:55;10.30;81.10
67769;DHT22;54569;52.018;5.584;2023-03-14T04:23:24;10.30;81.50
67769;DHT22;54569;52.018;5.584;2023-03-14T04:25:51;10.30;80.70
67769;DHT22;54569;52.018;5.584;2023-03-14T04:28:18;10.30;80.50
67769;DHT22;54569;52.018;5.584;2023-03-14T04:30:45;10.40;80.40
67769;DHT22;54569;52.018;5.584;2023-03-14T04:33:15;10.40;80.20
67769;DHT22;54569;52.018;5.584;2023-03-14T04:35:47;10.30;80.20
67769;DHT22;54569;52.018;5.584;2023-03-14T04:38:14;10.40;80.70
67769;DHT22;54569;52.018;5.584;2023-03-14T04:40:44;10.40;81.00
67769;DHT22;54569;52.018;5.584;2023-03-14T04:43:11;10.40;80.40
67769;DHT22;54569;52.018;5.584;2023-03-14T04:45:41;10.40;80.70
67769;DHT22;54569;52.018;5.584;2023-03-14T04:48:08;10.40;80.70
67769;DHT22;54569;52.018;5.584;2023-03-14T04:50:34;10.40;80.50
67769;DHT22;54569;52.018;5.584;2023-03-14T04:53:00;10.40;80.00
67769;DHT22;54569;52.018;5.584;2023-03-14T04:55:26;10.40;80.90
67769;DHT22;54569;52.018;5.584;2023-03-14T04:57:54;10.40;80.70
67769;DHT22;54569;52.018;5.584;2023-03-14T05:00:20;10.40;80.70
67769;DHT22;54569;52.018;5.584;2023-03-14T05:03:07;10.40;80.70
67769;DHT22;54569;52.018;5.584;2023-03-14T05:05:59;10.50;80.40
67769;DHT22;54569;52.018;5.584;2023-03-14T05:08:39;10.40;80.50
67769;DHT22;54569;52.018;5.584;2023-03-14T05:11:17;10.40;80.50
67769;DHT22;54569;52.018;5.584;2023-03-14T05:13:56;10.40;80.50
67769;DHT22;54569;52.018;5.584;2023-03-14T05:16:40;10.40;80.10
67769;DHT22;54569;52.018;5.584;2023-03-14T05:19:24;10.40;80.90
67769;DHT22;54569;52.018;5.584;2023-03-14T05:22:08;10.40;81.80
67769;DHT22;54569;52.018;5.584;2023-03-14T05:24:40;10.40;81.20
67769;DHT22;54569;52.018;5.584;2023-03-14T05:27:24;10.40;81.40
67769;DHT22;54569;52.018;5.584;2023-03-14T05:29:58;10.40;81.70
67769;DHT22;54569;52.018;5.584;2023-03-14T05:32:43;10.40;82.10
67769;DHT22;54569;52.018;5.584;2023-03-14T05:35:08;10.40;82.80
67769;DHT22;54569;52.018;5.584;2023-03-14T05:37:42;10.30;82.20
67769;DHT22;54569;52.018;5.584;2023-03-14T05:40:26;10.30;82.10
67769;DHT22;54569;52.018;5.584;2023-03-14T05:43:04;10.30;82.60
67769;DHT22;54569;52.018;5.584;2023-03-14T05:45:40;10.30;82.60
67769;DHT22;54569;52.018;5.584;2023-03-14T05:48:24;10.20;83.10
67769;DHT22;54569;52.018;5.584;2023-03-14T05:51:16;10.20;83.30
67769;DHT22;54569;52.018;5.584;2023-03-14T05:54:08;10.20;83.90
67769;DHT22;54569;52.018;5.584;2023-03-14T05:56:55;10.20;83.70
67769;DHT22;54569;52.018;5.584;2023-03-14T05:59:36;10.10;84.70
67769;DHT22;54569;52.018;5.584;2023-03-14T06:02:25;10.10;84.50
67769;DHT22;54569;52.018;5.584;2023-03-14T06:05:00;10.10;84.50
67769;DHT22;54569;52.018;5.584;2023-03-14T06:07:26;10.10;85.20
67769;DHT22;54569;52.018;5.584;2023-03-14T06:09:52;10.10;85.20
67769;DHT22;54569;52.018;5.584;2023-03-14T06:12:18;10.10;85.20
67769;DHT22;54569;52.018;5.584;2023-03-14T06:14:50;10.10;85.20
67769;DHT22;54569;52.018;5.584;2023-03-14T06:17:16;10.10;85.90
67769;DHT22;54569;52.018;5.584;2023-03-14T06:19:54;10.10;85.10
67769;DHT22;54569;52.018;5.584;2023-03-14T06:22:20;10.10;85.30
67769;DHT22;54569;52.018;5.584;2023-03-14T06:24:46;10.10;86.50
67769;DHT22;54569;52.018;5.584;2023-03-14T06:27:13;10.10;86.40
67769;DHT22;54569;52.018;5.584;2023-03-14T06:29:39;10.10;85.60
67769;DHT22;54569;52.018;5.584;2023-03-14T06:32:05;10.10;86.60
67769;DHT22;54569;52.018;5.584;2023-03-14T06:34:31;10.10;86.40
67769;DHT22;54569;52.018;5.584;2023-03-14T06:36:56;10.10;86.10
67769;DHT22;54569;52.018;5.584;2023-03-14T06:39:22;10.10;86.80
67769;DHT22;54569;52.018;5.584;2023-03-14T06:41:56;10.10;86.00
67769;DHT22;54569;52.018;5.584;2023-03-14T06:44:22;10.10;86.90
67769;DHT22;54569;52.018;5.584;2023-03-14T06:46:48;10.20;86.90
67769;DHT22;54569;52.018;5.584;2023-03-14T06:49:13;10.10;86.60
67769;DHT22;54569;52.018;5.584;2023-03-14T06:51:39;10.20;87.00
67769;DHT22;54569;52.018;5.584;2023-03-14T06:54:08;10.20;87.00
67769;DHT22;54569;52.018;5.584;2023-03-14T06:56:34;10.20;86.70
67769;DHT22;54569;52.018;5.584;2023-03-14T06:59:00;10.20;87.30
67769;DHT22;54569;52.018;5.584;2023-03-14T07:01:30;10.20;86.30
67769;DHT22;54569;52.018;5.584;2023-03-14T07:04:04;10.20;87.00
67769;DHT22;54569;52.018;5.584;2023-03-14T07:06:30;10.20;86.80
67769;DHT22;54569;52.018;5.584;2023-03-14T07:08:57;10.10;86.40
67769;DHT22;54569;52.018;5.584;2023-03-14T07:11:23;10.00;85.30
67769;DHT22;54569;52.018;5.584;2023-03-14T07:13:49;9.90;84.70
67769;DHT22;54569;52.018;5.584;2023-03-14T07:16:15;9.70;84.50
67769;DHT22;54569;52.018;5.584;2023-03-14T07:18:41;9.70;84.30
67769;DHT22;54569;52.018;5.584;2023-03-14T07:21:07;9.60;84.20
67769;DHT22;54569;52.018;5.584;2023-03-14T07:23:35;9.60;84.30
67769;DHT22;54569;52.018;5.584;2023-03-14T07:26:02;9.50;84.10
67769;DHT22;54569;52.018;5.584;2023-03-14T07:28:29;9.50;84.00
67769;DHT22;54569;52.018;5.584;2023-03-14T07:31:01;9.40;83.90
67769;DHT22;54569;52.018;5.584;2023-03-14T07:33:32;9.40;84.00
67769;DHT22;54569;52.018;5.584;2023-03-14T07:35:58;9.40;84.00
67769;DHT22;54569;52.018;5.584;2023-03-14T07:38:24;9.40;83.90
67769;DHT22;54569;52.018;5.584;2023-03-14T07:41:22;9.30;84.30
67769;DHT22;54569;52.018;5.584;2023-03-14T07:44:08;9.30;84.40
67769;DHT22;54569;52.018;5.584;2023-03-14T07:46:37;9.30;84.40
67769;DHT22;54569;52.018;5.584;2023-03-14T07:49:09;9.20;84.40
67769;DHT22;54569;52.018;5.584;2023-03-14T07:51:34;9.20;84.50
67769;DHT22;54569;52.018;5.584;2023-03-14T07:54:00;9.20;84.50
67769;DHT22;54569;52.018;5.584;2023-03-14T07:56:26;9.20;84.60
67769;DHT22;54569;52.018;5.584;2023-03-14T07:58:51;9.20;84.60
67769;DHT22;54569;52.018;5.584;2023-03-14T08:01:17;9.20;84.70
67769;DHT22;54569;52.018;5.584;2023-03-14T08:03:43;9.20;84.70
67769;DHT22;54569;52.018;5.584;2023-03-14T08:06:08;9.10;84.50
67769;DHT22;54569;52.018;5.584;2023-03-14T08:08:34;9.20;84.60
67769;DHT22;54569;52.018;5.584;2023-03-14T08:11:04;9.20;84.40
67769;DHT22;54569;52.018;5.584;2023-03-14T08:13:31;9.20;84.40
67769;DHT22;54569;52.018;5.584;2023-03-14T08:15:56;9.20;83.90
67769;DHT22;54569;52.018;5.584;2023-03-14T08:18:22;9.30;83.90
67769;DHT22;54569;52.018;5.584;2023-03-14T08:20:48;9.30;83.70
67769;DHT22;54569;52.018;5.584;2023-03-14T08:23:13;9.30;83.50
67769;DHT22;54569;52.018;5.584;2023-03-14T08:25:39;9.30;83.60
67769;DHT22;54569;52.018;5.584;2023-03-14T08:28:05;9.20;83.10
67769;DHT22;54569;52.018;5.584;2023-03-14T08:30:30;9.00;83.30
67769;DHT22;54569;52.018;5.584;2023-03-14T08:32:57;8.70;83.20
67769;DHT22;54569;52.018;5.584;2023-03-14T08:35:24;8.50;83.50
67769;DHT22;54569;52.018;5.584;2023-03-14T08:37:50;8.50;84.00
67769;DHT22;54569;52.018;5.584;2023-03-14T08:40:17;8.40;83.90
67769;DHT22;54569;52.018;5.584;2023-03-14T08:42:43;8.40;83.60
67769;DHT22;54569;52.018;5.584;2023-03-14T08:45:12;8.30;83.40
67769;DHT22;54569;52.018;5.584;2023-03-14T08:47:38;8.30;83.10
67769;DHT22;54569;52.018;5.584;2023-03-14T08:50:05;8.50;82.70
67769;DHT22;54569;52.018;5.584;2023-03-14T08:52:32;8.60;81.60
67769;DHT22;54569;52.018;5.584;2023-03-14T08:54:58;8.50;81.50
67769;DHT22;54569;52.018;5.584;2023-03-14T08:57:24;8.50;81.30
67769;DHT22;54569;52.018;5.584;2023-03-14T08:59:56;8.50;81.00
67769;DHT22;54569;52.018;5.584;2023-03-14T09:02:23;8.50;81.00
67769;DHT22;54569;52.018;5.584;2023-03-14T09:04:52;8.50;80.90
67769;DHT22;54569;52.018;5.584;2023-03-14T09:07:19;8.60;80.70
67769;DHT22;54569;52.018;5.584;2023-03-14T09:09:45;9.00;79.70
67769;DHT22;54569;52.018;5.584;2023-03-14T09:12:11;9.30;78.40
67769;DHT22;54569;52.018;5.584;2023-03-14T09:14:36;9.60;77.50
67769;DHT22;54569;52.018;5.584;2023-03-14T09:17:03;9.80;76.40
67769;DHT22;54569;52.018;5.584;2023-03-14T09:19:29;10.20;75.20
67769;DHT22;54569;52.018;5.584;2023-03-14T09:21:55;10.40;74.00
67769;DHT22;54569;52.018;5.584;2023-03-14T09:24:20;10.40;74.20
67769;DHT22;54569;52.018;5.584;2023-03-14T09:26:46;10.70;73.30
67769;DHT22;54569;52.018;5.584;2023-03-14T09:29:12;10.70;72.60
67769;DHT22;54569;52.018;5.584;2023-03-14T09:31:38;10.50;72.60
67769;DHT22;54569;52.018;5.584;2023-03-14T09:34:03;10.30;73.10
67769;DHT22;54569;52.018;5.584;2023-03-14T09:36:30;10.20;73.40
67769;DHT22;54569;52.018;5.584;2023-03-14T09:38:55;10.00;73.80
67769;DHT22;54569;52.018;5.584;2023-03-14T09:41:23;9.90;74.10
67769;DHT22;54569;52.018;5.584;2023-03-14T09:43:58;9.70;74.20
67769;DHT22;54569;52.018;5.584;2023-03-14T09:46:27;9.60;74.80
67769;DHT22;54569;52.018;5.584;2023-03-14T09:48:53;9.50;74.70
67769;DHT22;54569;52.018;5.584;2023-03-14T09:51:20;9.70;74.40
67769;DHT22;54569;52.018;5.584;2023-03-14T09:53:49;9.90;73.70
67769;DHT22;54569;52.018;5.584;2023-03-14T09:56:21;10.20;72.70
67769;DHT22;54569;52.018;5.584;2023-03-14T09:58:53;10.40;71.90
67769;DHT22;54569;52.018;5.584;2023-03-14T10:01:24;10.50;71.30
67769;DHT22;54569;52.018;5.584;2023-03-14T10:03:54;10.50;71.20
67769;DHT22;54569;52.018;5.584;2023-03-14T10:06:23;10.60;71.00
67769;DHT22;54569;52.018;5.584;2023-03-14T10:08:50;10.50;70.60
67769;DHT22;54569;52.018;5.584;2023-03-14T10:11:18;10.40;70.90
67769;DHT22;54569;52.018;5.584;2023-03-14T10:14:08;10.20;70.90
67769;DHT22;54569;52.018;5.584;2023-03-14T10:16:45;10.10;71.10
67769;DHT22;54569;52.018;5.584;2023-03-14T10:19:13;10.00;71.10
67769;DHT22;54569;52.018;5.584;2023-03-14T10:21:50;9.90;71.60
67769;DHT22;54569;52.018;5.584;2023-03-14T10:24:30;9.90;71.80
67769;DHT22;54569;52.018;5.584;2023-03-14T10:27:04;10.00;71.40
67769;DHT22;54569;52.018;5.584;2023-03-14T10:29:32;10.20;70.90
67769;DHT22;54569;52.018;5.584;2023-03-14T10:32:01;10.40;70.40
67769;DHT22;54569;52.018;5.584;2023-03-14T10:34:33;10.70;70.30
67769;DHT22;54569;52.018;5.584;2023-03-14T10:39:52;11.70;67.10
67769;DHT22;54569;52.018;5.584;2023-03-14T10:42:24;11.40;68.00
67769;DHT22;54569;52.018;5.584;2023-03-14T10:44:58;10.90;69.50
67769;DHT22;54569;52.018;5.584;2023-03-14T10:47:26;10.30;70.70
67769;DHT22;54569;52.018;5.584;2023-03-14T10:49:54;9.80;72.00
67769;DHT22;54569;52.018;5.584;2023-03-14T10:52:26;9.60;72.80
67769;DHT22;54569;52.018;5.584;2023-03-14T10:55:09;9.60;73.30
67769;DHT22;54569;52.018;5.584;2023-03-14T10:57:44;9.70;73.00
67769;DHT22;54569;52.018;5.584;2023-03-14T11:05:38;10.50;71.00
67769;DHT22;54569;52.018;5.584;2023-03-14T11:08:14;10.70;70.50
67769;DHT22;54569;52.018;5.584;2023-03-14T11:10:44;10.80;70.00
67769;DHT22;54569;52.018;5.584;2023-03-14T11:16:09;10.60;69.10
67769;DHT22;54569;52.018;5.584;2023-03-14T11:21:56;9.90;71.20
67769;DHT22;54569;52.018;5.584;2023-03-14T11:32:45;9.40;71.30
67769;DHT22;54569;52.018;5.584;2023-03-14T11:35:26;9.50;70.50
67769;DHT22;54569;52.018;5.584;2023-03-14T11:38:15;9.70;70.20
67769;DHT22;54569;52.018;5.584;2023-03-14T11:40:41;10.70;71.70
67769;DHT22;54569;52.018;5.584;2023-03-14T11:45:39;16.00;70.50
67769;DHT22;54569;52.018;5.584;2023-03-14T11:48:27;18.40;86.20
67769;DHT22;54569;52.018;5.584;2023-03-14T11:50:57;20.60;51.00
67769;DHT22;54569;52.018;5.584;2023-03-14T11:53:48;20.90;50.20
67769;DHT22;54569;52.018;5.584;2023-03-14T11:56:39;19.10;48.10
67769;DHT22;54569;52.018;5.584;2023-03-14T11:59:17;17.70;51.60
67769;DHT22;54569;52.018;5.584;2023-03-14T12:02:03;18.10;55.20
67769;DHT22;54569;52.018;5.584;2023-03-14T12:04:49;19.30;53.20
67769;DHT22;54569;52.018;5.584;2023-03-14T12:07:20;21.20;56.70
67769;DHT22;54569;52.018;5.584;2023-03-14T12:09:47;22.80;50.90
67769;DHT22;54569;52.018;5.584;2023-03-14T12:12:19;24.30;48.50
67769;DHT22;54569;52.018;5.584;2023-03-14T12:14:55;25.80;45.20
67769;DHT22;54569;52.018;5.584;2023-03-14T12:17:39;26.00;44.10
67769;DHT22;54569;52.018;5.584;2023-03-14T12:20:26;26.40;42.00
67769;DHT22;54569;52.018;5.584;2023-03-14T12:22:56;26.70;41.20
67769;DHT22;54569;52.018;5.584;2023-03-14T12:25:32;26.70;43.40
67769;DHT22;54569;52.018;5.584;2023-03-14T12:30:35;26.60;43.60
67769;DHT22;54569;52.018;5.584;2023-03-14T12:35:43;24.00;42.00
67769;DHT22;54569;52.018;5.584;2023-03-14T12:38:32;22.30;49.10
67769;DHT22;54569;52.018;5.584;2023-03-14T12:43:41;19.20;53.50
67769;DHT22;54569;52.018;5.584;2023-03-14T12:48:50;17.60;52.00
67769;DHT22;54569;52.018;5.584;2023-03-14T12:51:19;17.30;55.90
67769;DHT22;54569;52.018;5.584;2023-03-14T12:59:01;16.60;55.60
67769;DHT22;54569;52.018;5.584;2023-03-14T13:01:29;16.50;53.80
67769;DHT22;54569;52.018;5.584;2023-03-14T13:04:04;16.20;55.40
67769;DHT22;54569;52.018;5.584;2023-03-14T13:06:53;15.90;54.30
67769;DHT22;54569;52.018;5.584;2023-03-14T13:11:53;15.00;53.90
67769;DHT22;54569;52.018;5.584;2023-03-14T13:14:19;14.80;55.00
67769;DHT22;54569;52.018;5.584;2023-03-14T13:16:46;14.70;55.00
67769;DHT22;54569;52.018;5.584;2023-03-14T13:19:27;14.60;54.40
67769;DHT22;54569;52.018;5.584;2023-03-14T13:22:04;14.50;50.30
67769;DHT22;54569;52.018;5.584;2023-03-14T13:24:33;14.40;52.80
67769;DHT22;54569;52.018;5.584;2023-03-14T13:27:00;14.40;52.50
67769;DHT22;54569;52.018;5.584;2023-03-14T13:29:30;14.20;53.30
67769;DHT22;54569;52.018;5.584;2023-03-14T13:32:01;14.10;52.60
67769;DHT22;54569;52.018;5.584;2023-03-14T13:34:34;14.00;53.20
67769;DHT22;54569;52.018;5.584;2023-03-14T13:37:00;14.00;52.80
67769;DHT22;54569;52.018;5.584;2023-03-14T13:39:28;13.90;53.60
67769;DHT22;54569;52.018;5.584;2023-03-14T13:41:58;14.00;53.20
67769;DHT22;54569;52.018;5.584;2023-03-14T13:44:41;14.00;52.70
67769;DHT22;54569;52.018;5.584;2023-03-14T13:47:15;13.90;49.30
67769;DHT22;54569;52.018;5.584;2023-03-14T13:49:42;13.70;51.50
67769;DHT22;54569;52.018;5.584;2023-03-14T13:52:31;13.60;52.70
67769;DHT22;54569;52.018;5.584;2023-03-14T13:54:59;13.30;49.10
67769;DHT22;54569;52.018;5.584;2023-03-14T13:57:26;13.20;52.80
67769;DHT22;54569;52.018;5.584;2023-03-14T14:00:04;13.10;52.30
67769;DHT22;54569;52.018;5.584;2023-03-14T14:02:39;13.10;51.60
67769;DHT22;54569;52.018;5.584;2023-03-14T14:05:05;12.90;52.30
67769;DHT22;54569;52.018;5.584;2023-03-14T14:07:31;12.70;52.90
67769;DHT22;54569;52.018;5.584;2023-03-14T14:09:59;12.70;53.00
67769;DHT22;54569;52.018;5.584;2023-03-14T14:12:50;12.80;52.50
67769;DHT22;54569;52.018;5.584;2023-03-14T14:15:26;12.80;52.00
67769;DHT22;54569;52.018;5.584;2023-03-14T14:17:57;13.00;50.70
67769;DHT22;54569;52.018;5.584;2023-03-14T14:20:38;12.90;51.80
67769;DHT22;54569;52.018;5.584;2023-03-14T14:23:10;12.90;50.00
67769;DHT22;54569;52.018;5.584;2023-03-14T14:25:37;12.80;51.60
67769;DHT22;54569;52.018;5.584;2023-03-14T14:28:30;12.80;52.50
67769;DHT22;54569;52.018;5.584;2023-03-14T14:33:38;12.60;52.30
67769;DHT22;54569;52.018;5.584;2023-03-14T14:36:11;12.50;52.00
67769;DHT22;54569;52.018;5.584;2023-03-14T14:38:38;12.20;52.80
67769;DHT22;54569;52.018;5.584;2023-03-14T14:41:03;12.00;53.40
67769;DHT22;54569;52.018;5.584;2023-03-14T14:43:36;11.80;52.90
67769;DHT22;54569;52.018;5.584;2023-03-14T14:46:06;11.60;53.80
67769;DHT22;54569;52.018;5.584;2023-03-14T14:48:37;11.50;53.10
67769;DHT22;54569;52.018;5.584;2023-03-14T14:51:05;11.40;53.00
67769;DHT22;54569;52.018;5.584;2023-03-14T14:53:40;11.40;53.10
67769;DHT22;54569;52.018;5.584;2023-03-14T14:56:28;11.30;52.70
67769;DHT22;54569;52.018;5.584;2023-03-14T14:59:01;11.20;50.40
67769;DHT22;54569;52.018;5.584;2023-03-14T15:01:36;11.10;52.90
67769;DHT22;54569;52.018;5.584;2023-03-14T15:04:04;11.00;51.80
67769;DHT22;54569;52.018;5.584;2023-03-14T15:06:34;10.90;53.00
67769;DHT22;54569;52.018;5.584;2023-03-14T15:09:00;10.80;53.00
67769;DHT22;54569;52.018;5.584;2023-03-14T15:11:26;10.70;52.60
67769;DHT22;54569;52.018;5.584;2023-03-14T15:13:52;10.60;52.80
67769;DHT22;54569;52.018;5.584;2023-03-14T15:16:21;10.40;52.80
67769;DHT22;54569;52.018;5.584;2023-03-14T15:18:59;10.30;53.10
67769;DHT22;54569;52.018;5.584;2023-03-14T15:21:26;10.20;52.10
67769;DHT22;54569;52.018;5.584;2023-03-14T15:23:53;10.10;53.20
67769;DHT22;54569;52.018;5.584;2023-03-14T15:26:21;10.10;52.50
67769;DHT22;54569;52.018;5.584;2023-03-14T15:28:47;10.10;52.60
67769;DHT22;54569;52.018;5.584;2023-03-14T15:31:15;10.00;52.90
67769;DHT22;54569;52.018;5.584;2023-03-14T15:33:43;10.00;52.80
67769;DHT22;54569;52.018;5.584;2023-03-14T15:36:30;10.00;52.40
67769;DHT22;54569;52.018;5.584;2023-03-14T15:38:57;9.90;50.50
67769;DHT22;54569;52.018;5.584;2023-03-14T15:41:25;9.80;52.50
67769;DHT22;54569;52.018;5.584;2023-03-14T15:43:51;9.80;52.80
67769;DHT22;54569;52.018;5.584;2023-03-14T15:46:18;9.80;52.90
67769;DHT22;54569;52.018;5.584;2023-03-14T15:48:44;9.70;52.70
67769;DHT22;54569;52.018;5.584;2023-03-14T15:51:10;9.80;53.10
67769;DHT22;54569;52.018;5.584;2023-03-14T15:53:36;9.80;53.00
67769;DHT22;54569;52.018;5.584;2023-03-14T15:56:04;9.70;52.40
67769;DHT22;54569;52.018;5.584;2023-03-14T15:58:30;9.60;52.70
67769;DHT22;54569;52.018;5.584;2023-03-14T16:01:00;9.50;52.90
67769;DHT22;54569;52.018;5.584;2023-03-14T16:03:27;9.50;52.70
67769;DHT22;54569;52.018;5.584;2023-03-14T16:05:53;9.40;53.00
67769;DHT22;54569;52.018;5.584;2023-03-14T16:08:19;9.40;53.10
67769;DHT22;54569;52.018;5.584;2023-03-14T16:10:45;9.30;52.90
67769;DHT22;54569;52.018;5.584;2023-03-14T16:13:12;9.20;53.00
67769;DHT22;54569;52.018;5.584;2023-03-14T16:15:37;9.10;53.10
67769;DHT22;54569;52.018;5.584;2023-03-14T16:18:03;9.00;53.20
67769;DHT22;54569;52.018;5.584;2023-03-14T16:20:29;9.00;53.10
67769;DHT22;54569;52.018;5.584;2023-03-14T16:22:55;9.00;53.00
67769;DHT22;54569;52.018;5.584;2023-03-14T16:25:21;9.00;53.10
67769;DHT22;54569;52.018;5.584;2023-03-14T16:27:48;8.90;52.90
67769;DHT22;54569;52.018;5.584;2023-03-14T16:31:14;8.90;52.90
67769;DHT22;54569;52.018;5.584;2023-03-14T16:33:42;8.80;53.00
67769;DHT22;54569;52.018;5.584;2023-03-14T16:36:10;8.70;53.10
67769;DHT22;54569;52.018;5.584;2023-03-14T16:38:38;8.70;53.30
67769;DHT22;54569;52.018;5.584;2023-03-14T16:41:05;8.60;53.50
67769;DHT22;54569;52.018;5.584;2023-03-14T16:43:31;8.60;53.50
67769;DHT22;54569;52.018;5.584;2023-03-14T16:45:59;8.60;53.60